sensor_id;sensor_type;location;lat;lon;timestamp;P1;durP1;ratioP1;P2;durP2;ratioP2
14782;SDS011;7483;50.498;12.138;2022-11-20T00:01:33;0.20;;;0.20;;
14782;SDS011;7483;50.498;12.138;2022-11-20T00:04:01;0.20;;;0.20;;
14782;SDS011;7483;50.498;12.138;2022-11-20T00:06:29;0.20;;;0.20;;
14782;SDS011;7483;50.498;12.138;2022-11-20T00:08:58;0.20;;;0.20;;
14782;SDS011;7483;50.498;12.138;2022-11-20T00:11:28;0.20;;;0.20;;
14782;SDS011;7483;50.498;12.138;2022-11-20T00:13:59;0.20;;;0.20;;
14782;SDS011;7483;50.498;12.138;2022-11-20T00:16:31;0.20;;;0.20;;
14782;SDS011;7483;50.498;12.138;2022-11-20T00:19:00;0.20;;;0.20;;
14782;SDS011;7483;50.498;12.138;2022-11-20T00:21:28;0.20;;;0.20;;
14782;SDS011;7483;50.498;12.138;2022-11-20T00:23:57;0.20;;;0.20;;
14782;SDS011;7483;50.498;12.138;2022-11-20T00:26:26;0.20;;;0.20;;
14782;SDS011;7483;50.498;12.138;2022-11-20T00:28:57;0.20;;;0.20;;
14782;SDS011;7483;50.498;12.138;2022-11-20T00:31:27;0.20;;;0.20;;
14782;SDS011;7483;50.498;12.138;2022-11-20T00:33:58;0.20;;;0.20;;
14782;SDS011;7483;50.498;12.138;2022-11-20T00:36:27;0.20;;;0.20;;
14782;SDS011;7483;50.498;12.138;2022-11-20T00:38:58;0.20;;;0.20;;
14782;SDS011;7483;50.498;12.138;2022-11-20T00:41:27;0.20;;;0.20;;
14782;SDS011;7483;50.498;12.138;2022-11-20T00:43:56;0.20;;;0.20;;
14782;SDS011;7483;50.498;12.138;2022-11-20T00:46:26;0.20;;;0.20;;
14782;SDS011;7483;50.498;12.138;2022-11-20T00:48:55;0.20;;;0.20;;
14782;SDS011;7483;50.498;12.138;2022-11-20T00:51:25;0.20;;;0.20;;
14782;SDS011;7483;50.498;12.138;2022-11-20T00:53:55;0.20;;;0.20;;
14782;SDS011;7483;50.498;12.138;2022-11-20T00:56:24;0.20;;;0.20;;
14782;SDS011;7483;50.498;12.138;2022-11-20T00:58:52;0.20;;;0.20;;
14782;SDS011;7483;50.498;12.138;2022-11-20T01:01:20;0.20;;;0.20;;
14782;SDS011;7483;50.498;12.138;2022-11-20T01:03:52;0.20;;;0.20;;
14782;SDS011;7483;50.498;12.138;2022-11-20T01:06:23;0.20;;;0.20;;
14782;SDS011;7483;50.498;12.138;2022-11-20T01:08:55;0.20;;;0.20;;
14782;SDS011;7483;50.498;12.138;2022-11-20T01:11:25;0.20;;;0.20;;
14782;SDS011;7483;50.498;12.138;2022-11-20T01:13:56;0.20;;;0.20;;
14782;SDS011;7483;50.498;12.138;2022-11-20T01:16:29;0.20;;;0.20;;
14782;SDS011;7483;50.498;12.138;2022-11-20T01:19:00;0.20;;;0.20;;
14782;SDS011;7483;50.498;12.138;2022-11-20T01:21:33;0.20;;;0.20;;
14782;SDS011;7483;50.498;12.138;2022-11-20T01:24:04;0.20;;;0.20;;
14782;SDS011;7483;50.498;12.138;2022-11-20T01:26:35;0.20;;;0.20;;
14782;SDS011;7483;50.498;12.138;2022-11-20T01:29:06;0.20;;;0.20;;
14782;SDS011;7483;50.498;12.138;2022-11-20T01:31:40;0.20;;;0.20;;
14782;SDS011;7483;50.498;12.138;2022-11-20T01:34:10;0.20;;;0.20;;
14782;SDS011;7483;50.498;12.138;2022-11-20T01:36:42;0.25;;;0.25;;
14782;SDS011;7483;50.498;12.138;2022-11-20T01:39:12;0.30;;;0.30;;
14782;SDS011;7483;50.498;12.138;2022-11-20T01:41:44;0.30;;;0.30;;
14782;SDS011;7483;50.498;12.138;2022-11-20T01:44:50;0.20;;;0.20;;
14782;SDS011;7483;50.498;12.138;2022-11-20T01:47:25;0.20;;;0.20;;
14782;SDS011;7483;50.498;12.138;2022-11-20T01:50:03;0.30;;;0.30;;
14782;SDS011;7483;50.498;12.138;2022-11-20T01:52:44;0.20;;;0.20;;
14782;SDS011;7483;50.498;12.138;2022-11-20T01:55:19;0.30;;;0.30;;
14782;SDS011;7483;50.498;12.138;2022-11-20T01:57:52;0.30;;;0.30;;
14782;SDS011;7483;50.498;12.138;2022-11-20T02:00:20;0.20;;;0.20;;
14782;SDS011;7483;50.498;12.138;2022-11-20T02:02:50;0.20;;;0.20;;
14782;SDS011;7483;50.498;12.138;2022-11-20T02:05:23;0.22;;;0.22;;
14782;SDS011;7483;50.498;12.138;2022-11-20T02:07:58;0.20;;;0.20;;
14782;SDS011;7483;50.498;12.138;2022-11-20T02:10:27;0.30;;;0.30;;
14782;SDS011;7483;50.498;12.138;2022-11-20T02:12:56;0.20;;;0.20;;
14782;SDS011;7483;50.498;12.138;2022-11-20T02:15:42;0.20;;;0.20;;
14782;SDS011;7483;50.498;12.138;2022-11-20T02:18:11;0.20;;;0.20;;
14782;SDS011;7483;50.498;12.138;2022-11-20T02:20:42;0.20;;;0.20;;
14782;SDS011;7483;50.498;12.138;2022-11-20T02:23:16;0.20;;;0.20;;
14782;SDS011;7483;50.498;12.138;2022-11-20T02:25:56;0.30;;;0.30;;
14782;SDS011;7483;50.498;12.138;2022-11-20T02:28:27;0.20;;;0.20;;
14782;SDS011;7483;50.498;12.138;2022-11-20T02:30:55;0.22;;;0.22;;
14782;SDS011;7483;50.498;12.138;2022-11-20T02:33:23;0.20;;;0.20;;
14782;SDS011;7483;50.498;12.138;2022-11-20T02:35:51;0.20;;;0.20;;
14782;SDS011;7483;50.498;12.138;2022-11-20T02:38:19;0.20;;;0.20;;
14782;SDS011;7483;50.498;12.138;2022-11-20T02:40:48;0.30;;;0.30;;
14782;SDS011;7483;50.498;12.138;2022-11-20T02:43:22;0.30;;;0.30;;
14782;SDS011;7483;50.498;12.138;2022-11-20T02:45:50;0.30;;;0.30;;
14782;SDS011;7483;50.498;12.138;2022-11-20T02:48:18;0.20;;;0.20;;
14782;SDS011;7483;50.498;12.138;2022-11-20T02:50:49;0.20;;;0.20;;
14782;SDS011;7483;50.498;12.138;2022-11-20T02:53:17;0.20;;;0.20;;
14782;SDS011;7483;50.498;12.138;2022-11-20T02:55:45;0.20;;;0.20;;
14782;SDS011;7483;50.498;12.138;2022-11-20T02:58:13;0.20;;;0.20;;
14782;SDS011;7483;50.498;12.138;2022-11-20T03:00:43;0.20;;;0.20;;
14782;SDS011;7483;50.498;12.138;2022-11-20T03:03:11;0.20;;;0.20;;
14782;SDS011;7483;50.498;12.138;2022-11-20T03:05:39;0.20;;;0.20;;
14782;SDS011;7483;50.498;12.138;2022-11-20T03:08:07;0.20;;;0.20;;
14782;SDS011;7483;50.498;12.138;2022-11-20T03:10:35;0.20;;;0.20;;
14782;SDS011;7483;50.498;12.138;2022-11-20T03:13:03;0.20;;;0.20;;
14782;SDS011;7483;50.498;12.138;2022-11-20T03:15:31;0.20;;;0.20;;
14782;SDS011;7483;50.498;12.138;2022-11-20T03:18:01;0.20;;;0.20;;
14782;SDS011;7483;50.498;12.138;2022-11-20T03:20:29;0.20;;;0.20;;
14782;SDS011;7483;50.498;12.138;2022-11-20T03:22:59;0.20;;;0.20;;
14782;SDS011;7483;50.498;12.138;2022-11-20T03:25:27;0.20;;;0.20;;
14782;SDS011;7483;50.498;12.138;2022-11-20T03:27:55;0.20;;;0.20;;
14782;SDS011;7483;50.498;12.138;2022-11-20T03:30:23;0.20;;;0.20;;
14782;SDS011;7483;50.498;12.138;2022-11-20T03:32:56;0.20;;;0.20;;
14782;SDS011;7483;50.498;12.138;2022-11-20T03:35:25;0.20;;;0.20;;
14782;SDS011;7483;50.498;12.138;2022-11-20T03:37:53;0.20;;;0.20;;
14782;SDS011;7483;50.498;12.138;2022-11-20T03:40:21;0.20;;;0.20;;
14782;SDS011;7483;50.498;12.138;2022-11-20T03:42:50;0.20;;;0.20;;
14782;SDS011;7483;50.498;12.138;2022-11-20T03:45:18;0.20;;;0.20;;
14782;SDS011;7483;50.498;12.138;2022-11-20T03:47:46;0.20;;;0.20;;
14782;SDS011;7483;50.498;12.138;2022-11-20T03:50:14;0.20;;;0.20;;
14782;SDS011;7483;50.498;12.138;2022-11-20T03:52:44;0.20;;;0.20;;
14782;SDS011;7483;50.498;12.138;2022-11-20T03:55:12;0.10;;;0.10;;
14782;SDS011;7483;50.498;12.138;2022-11-20T03:57:40;0.20;;;0.20;;
14782;SDS011;7483;50.498;12.138;2022-11-20T04:00:09;0.20;;;0.20;;
14782;SDS011;7483;50.498;12.138;2022-11-20T04:02:38;0.10;;;0.10;;
14782;SDS011;7483;50.498;12.138;2022-11-20T04:05:07;0.20;;;0.20;;
14782;SDS011;7483;50.498;12.138;2022-11-20T04:07:35;0.20;;;0.20;;
14782;SDS011;7483;50.498;12.138;2022-11-20T04:10:05;0.20;;;0.20;;
14782;SDS011;7483;50.498;12.138;2022-11-20T04:12:34;0.20;;;0.20;;
14782;SDS011;7483;50.498;12.138;2022-11-20T04:15:02;0.20;;;0.20;;
14782;SDS011;7483;50.498;12.138;2022-11-20T04:17:31;0.10;;;0.10;;
14782;SDS011;7483;50.498;12.138;2022-11-20T04:19:59;0.20;;;0.20;;
14782;SDS011;7483;50.498;12.138;2022-11-20T04:22:28;0.20;;;0.20;;
14782;SDS011;7483;50.498;12.138;2022-11-20T04:24:56;0.20;;;0.20;;
14782;SDS011;7483;50.498;12.138;2022-11-20T04:27:25;0.20;;;0.20;;
14782;SDS011;7483;50.498;12.138;2022-11-20T04:29:53;0.10;;;0.10;;
14782;SDS011;7483;50.498;12.138;2022-11-20T04:32:21;0.20;;;0.20;;
14782;SDS011;7483;50.498;12.138;2022-11-20T04:34:49;0.20;;;0.20;;
14782;SDS011;7483;50.498;12.138;2022-11-20T04:37:17;0.20;;;0.20;;
14782;SDS011;7483;50.498;12.138;2022-11-20T04:39:46;0.20;;;0.20;;
14782;SDS011;7483;50.498;12.138;2022-11-20T04:42:14;0.20;;;0.20;;
14782;SDS011;7483;50.498;12.138;2022-11-20T04:44:58;0.20;;;0.20;;
14782;SDS011;7483;50.498;12.138;2022-11-20T04:47:27;0.20;;;0.20;;
14782;SDS011;7483;50.498;12.138;2022-11-20T04:49:55;0.20;;;0.20;;
14782;SDS011;7483;50.498;12.138;2022-11-20T04:52:23;0.20;;;0.20;;
14782;SDS011;7483;50.498;12.138;2022-11-20T04:54:51;0.20;;;0.20;;
14782;SDS011;7483;50.498;12.138;2022-11-20T04:57:19;0.20;;;0.20;;
14782;SDS011;7483;50.498;12.138;2022-11-20T04:59:48;0.20;;;0.20;;
14782;SDS011;7483;50.498;12.138;2022-11-20T05:02:17;0.20;;;0.20;;
14782;SDS011;7483;50.498;12.138;2022-11-20T05:04:46;0.20;;;0.20;;
14782;SDS011;7483;50.498;12.138;2022-11-20T05:07:16;0.20;;;0.20;;
14782;SDS011;7483;50.498;12.138;2022-11-20T05:09:44;0.20;;;0.20;;
14782;SDS011;7483;50.498;12.138;2022-11-20T05:12:12;0.10;;;0.10;;
14782;SDS011;7483;50.498;12.138;2022-11-20T05:14:40;0.10;;;0.10;;
14782;SDS011;7483;50.498;12.138;2022-11-20T05:17:09;0.20;;;0.20;;
14782;SDS011;7483;50.498;12.138;2022-11-20T05:19:40;0.20;;;0.20;;
14782;SDS011;7483;50.498;12.138;2022-11-20T05:22:08;0.20;;;0.20;;
14782;SDS011;7483;50.498;12.138;2022-11-20T05:24:36;0.20;;;0.20;;
14782;SDS011;7483;50.498;12.138;2022-11-20T05:27:04;0.17;;;0.17;;
14782;SDS011;7483;50.498;12.138;2022-11-20T05:29:32;0.20;;;0.20;;
14782;SDS011;7483;50.498;12.138;2022-11-20T05:32:00;0.20;;;0.20;;
14782;SDS011;7483;50.498;12.138;2022-11-20T05:34:28;0.20;;;0.20;;
14782;SDS011;7483;50.498;12.138;2022-11-20T05:36:59;0.10;;;0.10;;
14782;SDS011;7483;50.498;12.138;2022-11-20T05:39:27;0.20;;;0.20;;
14782;SDS011;7483;50.498;12.138;2022-11-20T05:41:55;0.10;;;0.10;;
14782;SDS011;7483;50.498;12.138;2022-11-20T05:44:37;0.20;;;0.20;;
14782;SDS011;7483;50.498;12.138;2022-11-20T05:47:05;0.10;;;0.10;;
14782;SDS011;7483;50.498;12.138;2022-11-20T05:49:33;0.17;;;0.17;;
14782;SDS011;7483;50.498;12.138;2022-11-20T05:52:03;0.20;;;0.20;;
14782;SDS011;7483;50.498;12.138;2022-11-20T05:54:31;0.20;;;0.20;;
14782;SDS011;7483;50.498;12.138;2022-11-20T05:56:59;0.10;;;0.10;;
14782;SDS011;7483;50.498;12.138;2022-11-20T05:59:28;0.10;;;0.10;;
14782;SDS011;7483;50.498;12.138;2022-11-20T06:01:56;0.20;;;0.20;;
14782;SDS011;7483;50.498;12.138;2022-11-20T06:04:24;0.20;;;0.20;;
14782;SDS011;7483;50.498;12.138;2022-11-20T06:06:52;0.20;;;0.20;;
14782;SDS011;7483;50.498;12.138;2022-11-20T06:09:22;0.10;;;0.10;;
14782;SDS011;7483;50.498;12.138;2022-11-20T06:11:50;0.20;;;0.20;;
14782;SDS011;7483;50.498;12.138;2022-11-20T06:14:18;0.20;;;0.20;;
14782;SDS011;7483;50.498;12.138;2022-11-20T06:16:46;0.20;;;0.20;;
14782;SDS011;7483;50.498;12.138;2022-11-20T06:19:14;0.20;;;0.20;;
14782;SDS011;7483;50.498;12.138;2022-11-20T06:21:42;0.10;;;0.10;;
14782;SDS011;7483;50.498;12.138;2022-11-20T06:24:10;0.20;;;0.20;;
14782;SDS011;7483;50.498;12.138;2022-11-20T06:26:40;0.20;;;0.20;;
14782;SDS011;7483;50.498;12.138;2022-11-20T06:29:08;0.20;;;0.20;;
14782;SDS011;7483;50.498;12.138;2022-11-20T06:31:36;0.10;;;0.10;;
14782;SDS011;7483;50.498;12.138;2022-11-20T06:34:05;0.20;;;0.20;;
14782;SDS011;7483;50.498;12.138;2022-11-20T06:36:34;0.20;;;0.20;;
14782;SDS011;7483;50.498;12.138;2022-11-20T06:39:02;0.20;;;0.20;;
14782;SDS011;7483;50.498;12.138;2022-11-20T06:41:31;0.10;;;0.10;;
14782;SDS011;7483;50.498;12.138;2022-11-20T06:44:00;0.17;;;0.17;;
14782;SDS011;7483;50.498;12.138;2022-11-20T06:46:28;0.10;;;0.10;;
14782;SDS011;7483;50.498;12.138;2022-11-20T06:48:56;0.17;;;0.17;;
14782;SDS011;7483;50.498;12.138;2022-11-20T06:51:24;0.10;;;0.10;;
14782;SDS011;7483;50.498;12.138;2022-11-20T06:53:53;0.20;;;0.20;;
14782;SDS011;7483;50.498;12.138;2022-11-20T06:56:21;0.20;;;0.20;;
14782;SDS011;7483;50.498;12.138;2022-11-20T06:58:49;0.20;;;0.20;;
14782;SDS011;7483;50.498;12.138;2022-11-20T07:01:18;0.20;;;0.20;;
14782;SDS011;7483;50.498;12.138;2022-11-20T07:03:48;0.20;;;0.20;;
14782;SDS011;7483;50.498;12.138;2022-11-20T07:06:19;0.10;;;0.10;;
14782;SDS011;7483;50.498;12.138;2022-11-20T07:08:49;0.10;;;0.10;;
14782;SDS011;7483;50.498;12.138;2022-11-20T07:11:18;0.10;;;0.10;;
14782;SDS011;7483;50.498;12.138;2022-11-20T07:13:50;0.20;;;0.20;;
14782;SDS011;7483;50.498;12.138;2022-11-20T07:16:19;0.10;;;0.10;;
14782;SDS011;7483;50.498;12.138;2022-11-20T07:18:48;0.20;;;0.20;;
14782;SDS011;7483;50.498;12.138;2022-11-20T07:21:16;0.10;;;0.10;;
14782;SDS011;7483;50.498;12.138;2022-11-20T07:23:44;0.20;;;0.20;;
14782;SDS011;7483;50.498;12.138;2022-11-20T07:26:13;0.20;;;0.20;;
14782;SDS011;7483;50.498;12.138;2022-11-20T07:28:43;0.20;;;0.20;;
14782;SDS011;7483;50.498;12.138;2022-11-20T07:31:12;0.20;;;0.20;;
14782;SDS011;7483;50.498;12.138;2022-11-20T07:33:46;0.20;;;0.20;;
14782;SDS011;7483;50.498;12.138;2022-11-20T07:36:14;0.10;;;0.10;;
14782;SDS011;7483;50.498;12.138;2022-11-20T07:38:42;0.10;;;0.10;;
14782;SDS011;7483;50.498;12.138;2022-11-20T07:41:10;0.17;;;0.17;;
14782;SDS011;7483;50.498;12.138;2022-11-20T07:43:38;0.15;;;0.15;;
14782;SDS011;7483;50.498;12.138;2022-11-20T07:46:07;0.20;;;0.20;;
14782;SDS011;7483;50.498;12.138;2022-11-20T07:48:35;0.10;;;0.10;;
14782;SDS011;7483;50.498;12.138;2022-11-20T07:51:04;0.20;;;0.20;;
14782;SDS011;7483;50.498;12.138;2022-11-20T07:53:33;0.10;;;0.10;;
14782;SDS011;7483;50.498;12.138;2022-11-20T07:56:01;0.20;;;0.20;;
14782;SDS011;7483;50.498;12.138;2022-11-20T07:58:30;0.10;;;0.10;;
14782;SDS011;7483;50.498;12.138;2022-11-20T08:01:03;0.10;;;0.10;;
14782;SDS011;7483;50.498;12.138;2022-11-20T08:03:33;0.20;;;0.20;;
14782;SDS011;7483;50.498;12.138;2022-11-20T08:06:05;0.10;;;0.10;;
14782;SDS011;7483;50.498;12.138;2022-11-20T08:08:34;0.20;;;0.20;;
14782;SDS011;7483;50.498;12.138;2022-11-20T08:11:08;0.20;;;0.20;;
14782;SDS011;7483;50.498;12.138;2022-11-20T08:13:53;0.10;;;0.10;;
14782;SDS011;7483;50.498;12.138;2022-11-20T08:16:40;0.20;;;0.20;;
14782;SDS011;7483;50.498;12.138;2022-11-20T08:19:10;0.10;;;0.10;;
14782;SDS011;7483;50.498;12.138;2022-11-20T08:21:40;0.10;;;0.10;;
14782;SDS011;7483;50.498;12.138;2022-11-20T08:24:09;0.20;;;0.20;;
14782;SDS011;7483;50.498;12.138;2022-11-20T08:26:39;0.20;;;0.20;;
14782;SDS011;7483;50.498;12.138;2022-11-20T08:29:07;0.20;;;0.20;;
14782;SDS011;7483;50.498;12.138;2022-11-20T08:31:37;0.20;;;0.20;;
14782;SDS011;7483;50.498;12.138;2022-11-20T08:34:05;0.10;;;0.10;;
14782;SDS011;7483;50.498;12.138;2022-11-20T08:36:35;0.20;;;0.20;;
14782;SDS011;7483;50.498;12.138;2022-11-20T08:39:05;0.20;;;0.20;;
14782;SDS011;7483;50.498;12.138;2022-11-20T08:41:33;0.20;;;0.20;;
14782;SDS011;7483;50.498;12.138;2022-11-20T08:44:03;0.10;;;0.10;;
14782;SDS011;7483;50.498;12.138;2022-11-20T08:46:34;0.20;;;0.20;;
14782;SDS011;7483;50.498;12.138;2022-11-20T08:49:04;0.10;;;0.10;;
14782;SDS011;7483;50.498;12.138;2022-11-20T08:51:35;0.10;;;0.10;;
14782;SDS011;7483;50.498;12.138;2022-11-20T08:54:05;0.13;;;0.13;;
14782;SDS011;7483;50.498;12.138;2022-11-20T08:56:34;0.10;;;0.10;;
14782;SDS011;7483;50.498;12.138;2022-11-20T08:59:03;0.10;;;0.10;;
14782;SDS011;7483;50.498;12.138;2022-11-20T09:01:51;0.10;;;0.10;;
14782;SDS011;7483;50.498;12.138;2022-11-20T09:04:19;0.10;;;0.10;;
14782;SDS011;7483;50.498;12.138;2022-11-20T09:06:47;0.10;;;0.10;;
14782;SDS011;7483;50.498;12.138;2022-11-20T09:09:18;0.20;;;0.20;;
14782;SDS011;7483;50.498;12.138;2022-11-20T09:11:47;0.10;;;0.10;;
14782;SDS011;7483;50.498;12.138;2022-11-20T09:14:16;0.20;;;0.20;;
14782;SDS011;7483;50.498;12.138;2022-11-20T09:16:44;0.10;;;0.10;;
14782;SDS011;7483;50.498;12.138;2022-11-20T09:19:15;0.10;;;0.10;;
14782;SDS011;7483;50.498;12.138;2022-11-20T09:22:03;0.10;;;0.10;;
14782;SDS011;7483;50.498;12.138;2022-11-20T09:24:33;0.10;;;0.10;;
14782;SDS011;7483;50.498;12.138;2022-11-20T09:27:02;0.10;;;0.10;;
14782;SDS011;7483;50.498;12.138;2022-11-20T09:29:31;0.10;;;0.10;;
14782;SDS011;7483;50.498;12.138;2022-11-20T09:31:59;0.15;;;0.15;;
14782;SDS011;7483;50.498;12.138;2022-11-20T09:34:27;0.10;;;0.10;;
14782;SDS011;7483;50.498;12.138;2022-11-20T09:36:55;0.20;;;0.20;;
14782;SDS011;7483;50.498;12.138;2022-11-20T09:39:29;0.10;;;0.10;;
14782;SDS011;7483;50.498;12.138;2022-11-20T09:45:02;0.10;;;0.10;;
14782;SDS011;7483;50.498;12.138;2022-11-20T09:47:52;0.10;;;0.10;;
14782;SDS011;7483;50.498;12.138;2022-11-20T09:50:32;0.10;;;0.10;;
14782;SDS011;7483;50.498;12.138;2022-11-20T09:53:12;0.20;;;0.20;;
14782;SDS011;7483;50.498;12.138;2022-11-20T09:55:51;0.10;;;0.10;;
14782;SDS011;7483;50.498;12.138;2022-11-20T09:58:24;0.10;;;0.10;;
14782;SDS011;7483;50.498;12.138;2022-11-20T10:01:03;0.10;;;0.10;;
14782;SDS011;7483;50.498;12.138;2022-11-20T10:03:41;0.10;;;0.10;;
14782;SDS011;7483;50.498;12.138;2022-11-20T10:06:22;0.10;;;0.10;;
14782;SDS011;7483;50.498;12.138;2022-11-20T10:09:03;0.10;;;0.10;;
14782;SDS011;7483;50.498;12.138;2022-11-20T10:11:47;0.10;;;0.10;;
14782;SDS011;7483;50.498;12.138;2022-11-20T10:14:26;0.10;;;0.10;;
14782;SDS011;7483;50.498;12.138;2022-11-20T10:17:09;0.10;;;0.10;;
14782;SDS011;7483;50.498;12.138;2022-11-20T10:19:54;0.10;;;0.10;;
14782;SDS011;7483;50.498;12.138;2022-11-20T10:22:47;0.10;;;0.10;;
14782;SDS011;7483;50.498;12.138;2022-11-20T10:25:37;0.10;;;0.10;;
14782;SDS011;7483;50.498;12.138;2022-11-20T10:28:13;0.20;;;0.20;;
14782;SDS011;7483;50.498;12.138;2022-11-20T10:30:59;0.10;;;0.10;;
14782;SDS011;7483;50.498;12.138;2022-11-20T10:33:35;0.10;;;0.10;;
14782;SDS011;7483;50.498;12.138;2022-11-20T10:36:29;0.10;;;0.10;;
14782;SDS011;7483;50.498;12.138;2022-11-20T10:39:04;0.10;;;0.10;;
14782;SDS011;7483;50.498;12.138;2022-11-20T10:41:44;0.10;;;0.10;;
14782;SDS011;7483;50.498;12.138;2022-11-20T10:44:19;0.15;;;0.15;;
14782;SDS011;7483;50.498;12.138;2022-11-20T10:47:05;0.10;;;0.10;;
14782;SDS011;7483;50.498;12.138;2022-11-20T10:49:40;0.10;;;0.10;;
14782;SDS011;7483;50.498;12.138;2022-11-20T10:52:12;0.10;;;0.10;;
14782;SDS011;7483;50.498;12.138;2022-11-20T10:54:54;0.10;;;0.10;;
14782;SDS011;7483;50.498;12.138;2022-11-20T10:57:31;0.10;;;0.10;;
14782;SDS011;7483;50.498;12.138;2022-11-20T11:00:19;0.10;;;0.10;;
14782;SDS011;7483;50.498;12.138;2022-11-20T11:02:49;0.13;;;0.13;;
14782;SDS011;7483;50.498;12.138;2022-11-20T11:05:24;0.10;;;0.10;;
14782;SDS011;7483;50.498;12.138;2022-11-20T11:08:04;0.10;;;0.10;;
14782;SDS011;7483;50.498;12.138;2022-11-20T11:10:39;0.10;;;0.10;;
14782;SDS011;7483;50.498;12.138;2022-11-20T11:13:21;0.10;;;0.10;;
14782;SDS011;7483;50.498;12.138;2022-11-20T11:15:51;0.10;;;0.10;;
14782;SDS011;7483;50.498;12.138;2022-11-20T11:18:25;0.10;;;0.10;;
14782;SDS011;7483;50.498;12.138;2022-11-20T11:20:56;0.10;;;0.10;;
14782;SDS011;7483;50.498;12.138;2022-11-20T11:23:31;0.10;;;0.10;;
14782;SDS011;7483;50.498;12.138;2022-11-20T11:26:04;0.10;;;0.10;;
14782;SDS011;7483;50.498;12.138;2022-11-20T11:28:34;0.10;;;0.10;;
14782;SDS011;7483;50.498;12.138;2022-11-20T11:31:02;0.10;;;0.10;;
14782;SDS011;7483;50.498;12.138;2022-11-20T11:33:32;0.10;;;0.10;;
14782;SDS011;7483;50.498;12.138;2022-11-20T11:36:01;0.10;;;0.10;;
14782;SDS011;7483;50.498;12.138;2022-11-20T11:38:44;0.10;;;0.10;;
14782;SDS011;7483;50.498;12.138;2022-11-20T11:41:12;0.10;;;0.10;;
14782;SDS011;7483;50.498;12.138;2022-11-20T11:43:49;0.10;;;0.10;;
14782;SDS011;7483;50.498;12.138;2022-11-20T11:46:38;0.10;;;0.10;;
14782;SDS011;7483;50.498;12.138;2022-11-20T11:49:15;0.10;;;0.10;;
14782;SDS011;7483;50.498;12.138;2022-11-20T11:51:50;0.10;;;0.10;;
14782;SDS011;7483;50.498;12.138;2022-11-20T11:54:36;0.10;;;0.10;;
14782;SDS011;7483;50.498;12.138;2022-11-20T11:57:14;0.10;;;0.10;;
14782;SDS011;7483;50.498;12.138;2022-11-20T11:59:54;0.10;;;0.10;;
14782;SDS011;7483;50.498;12.138;2022-11-20T12:02:32;0.10;;;0.10;;
14782;SDS011;7483;50.498;12.138;2022-11-20T12:05:10;0.10;;;0.10;;
14782;SDS011;7483;50.498;12.138;2022-11-20T12:07:46;0.10;;;0.10;;
14782;SDS011;7483;50.498;12.138;2022-11-20T12:10:20;0.10;;;0.10;;
14782;SDS011;7483;50.498;12.138;2022-11-20T12:13:04;0.10;;;0.10;;
14782;SDS011;7483;50.498;12.138;2022-11-20T12:15:47;0.10;;;0.10;;
14782;SDS011;7483;50.498;12.138;2022-11-20T12:18:17;0.10;;;0.10;;
14782;SDS011;7483;50.498;12.138;2022-11-20T12:20:52;0.10;;;0.10;;
14782;SDS011;7483;50.498;12.138;2022-11-20T12:23:40;0.10;;;0.10;;
14782;SDS011;7483;50.498;12.138;2022-11-20T12:26:27;0.10;;;0.10;;
14782;SDS011;7483;50.498;12.138;2022-11-20T12:29:18;0.10;;;0.10;;
14782;SDS011;7483;50.498;12.138;2022-11-20T12:35:07;0.10;;;0.10;;
14782;SDS011;7483;50.498;12.138;2022-11-20T12:38:00;0.10;;;0.10;;
14782;SDS011;7483;50.498;12.138;2022-11-20T12:40:55;0.10;;;0.10;;
14782;SDS011;7483;50.498;12.138;2022-11-20T12:43:32;0.10;;;0.10;;
14782;SDS011;7483;50.498;12.138;2022-11-20T12:46:30;0.10;;;0.10;;
14782;SDS011;7483;50.498;12.138;2022-11-20T12:49:12;0.10;;;0.10;;
14782;SDS011;7483;50.498;12.138;2022-11-20T12:52:10;0.10;;;0.10;;
14782;SDS011;7483;50.498;12.138;2022-11-20T12:55:01;0.10;;;0.10;;
14782;SDS011;7483;50.498;12.138;2022-11-20T12:57:57;0.10;;;0.10;;
14782;SDS011;7483;50.498;12.138;2022-11-20T13:00:38;0.10;;;0.10;;
14782;SDS011;7483;50.498;12.138;2022-11-20T13:03:32;0.10;;;0.10;;
14782;SDS011;7483;50.498;12.138;2022-11-20T13:06:11;0.10;;;0.10;;
14782;SDS011;7483;50.498;12.138;2022-11-20T13:08:44;0.10;;;0.10;;
14782;SDS011;7483;50.498;12.138;2022-11-20T13:11:23;0.15;;;0.15;;
14782;SDS011;7483;50.498;12.138;2022-11-20T13:14:04;0.10;;;0.10;;
14782;SDS011;7483;50.498;12.138;2022-11-20T13:16:52;0.10;;;0.10;;
14782;SDS011;7483;50.498;12.138;2022-11-20T13:19:31;0.10;;;0.10;;
14782;SDS011;7483;50.498;12.138;2022-11-20T13:22:00;0.10;;;0.10;;
14782;SDS011;7483;50.498;12.138;2022-11-20T13:24:30;0.10;;;0.10;;
14782;SDS011;7483;50.498;12.138;2022-11-20T13:27:02;0.10;;;0.10;;
14782;SDS011;7483;50.498;12.138;2022-11-20T13:29:44;0.15;;;0.15;;
14782;SDS011;7483;50.498;12.138;2022-11-20T13:32:25;0.10;;;0.10;;
14782;SDS011;7483;50.498;12.138;2022-11-20T13:34:58;0.10;;;0.10;;
14782;SDS011;7483;50.498;12.138;2022-11-20T13:37:30;0.10;;;0.10;;
14782;SDS011;7483;50.498;12.138;2022-11-20T13:40:19;0.10;;;0.10;;
14782;SDS011;7483;50.498;12.138;2022-11-20T13:43:02;0.10;;;0.10;;
14782;SDS011;7483;50.498;12.138;2022-11-20T13:45:53;0.10;;;0.10;;
14782;SDS011;7483;50.498;12.138;2022-11-20T13:48:25;0.10;;;0.10;;
14782;SDS011;7483;50.498;12.138;2022-11-20T13:51:04;0.10;;;0.10;;
14782;SDS011;7483;50.498;12.138;2022-11-20T13:53:59;0.10;;;0.10;;
14782;SDS011;7483;50.498;12.138;2022-11-20T13:57:06;0.10;;;0.10;;
14782;SDS011;7483;50.498;12.138;2022-11-20T13:59:56;0.10;;;0.10;;
14782;SDS011;7483;50.498;12.138;2022-11-20T14:02:36;0.10;;;0.10;;
14782;SDS011;7483;50.498;12.138;2022-11-20T14:05:04;0.10;;;0.10;;
14782;SDS011;7483;50.498;12.138;2022-11-20T14:07:40;0.10;;;0.10;;
14782;SDS011;7483;50.498;12.138;2022-11-20T14:10:18;0.10;;;0.10;;
14782;SDS011;7483;50.498;12.138;2022-11-20T14:12:56;0.10;;;0.10;;
14782;SDS011;7483;50.498;12.138;2022-11-20T14:15:27;0.10;;;0.10;;
14782;SDS011;7483;50.498;12.138;2022-11-20T14:17:58;0.10;;;0.10;;
14782;SDS011;7483;50.498;12.138;2022-11-20T14:20:38;0.10;;;0.10;;
14782;SDS011;7483;50.498;12.138;2022-11-20T14:23:07;0.10;;;0.10;;
14782;SDS011;7483;50.498;12.138;2022-11-20T14:25:41;0.10;;;0.10;;
14782;SDS011;7483;50.498;12.138;2022-11-20T14:28:18;0.10;;;0.10;;
14782;SDS011;7483;50.498;12.138;2022-11-20T14:30:54;0.10;;;0.10;;
14782;SDS011;7483;50.498;12.138;2022-11-20T14:33:25;0.10;;;0.10;;
14782;SDS011;7483;50.498;12.138;2022-11-20T14:35:55;0.10;;;0.10;;
14782;SDS011;7483;50.498;12.138;2022-11-20T14:38:26;0.10;;;0.10;;
14782;SDS011;7483;50.498;12.138;2022-11-20T14:41:05;0.10;;;0.10;;
14782;SDS011;7483;50.498;12.138;2022-11-20T14:43:34;0.10;;;0.10;;
14782;SDS011;7483;50.498;12.138;2022-11-20T14:46:06;0.10;;;0.10;;
14782;SDS011;7483;50.498;12.138;2022-11-20T14:48:38;0.10;;;0.10;;
14782;SDS011;7483;50.498;12.138;2022-11-20T14:51:11;0.10;;;0.10;;
14782;SDS011;7483;50.498;12.138;2022-11-20T14:53:52;0.10;;;0.10;;
14782;SDS011;7483;50.498;12.138;2022-11-20T14:56:21;0.10;;;0.10;;
14782;SDS011;7483;50.498;12.138;2022-11-20T14:58:57;0.20;;;0.20;;
14782;SDS011;7483;50.498;12.138;2022-11-20T15:01:27;0.10;;;0.10;;
14782;SDS011;7483;50.498;12.138;2022-11-20T15:04:01;0.10;;;0.10;;
14782;SDS011;7483;50.498;12.138;2022-11-20T15:06:36;0.10;;;0.10;;
14782;SDS011;7483;50.498;12.138;2022-11-20T15:09:20;0.10;;;0.10;;
14782;SDS011;7483;50.498;12.138;2022-11-20T15:11:53;0.10;;;0.10;;
14782;SDS011;7483;50.498;12.138;2022-11-20T15:14:25;0.10;;;0.10;;
14782;SDS011;7483;50.498;12.138;2022-11-20T15:16:56;0.10;;;0.10;;
14782;SDS011;7483;50.498;12.138;2022-11-20T15:19:26;0.10;;;0.10;;
14782;SDS011;7483;50.498;12.138;2022-11-20T15:21:54;0.10;;;0.10;;
14782;SDS011;7483;50.498;12.138;2022-11-20T15:24:22;0.10;;;0.10;;
14782;SDS011;7483;50.498;12.138;2022-11-20T15:26:51;0.10;;;0.10;;
14782;SDS011;7483;50.498;12.138;2022-11-20T15:29:19;0.10;;;0.10;;